createdAt,value
2018-11-22T12:16:48.814Z,6.60
2018-11-22T12:19:17.166Z,6.70
2018-11-22T12:21:45.550Z,6.70
2018-11-22T12:24:13.886Z,6.80
2018-11-22T12:26:42.243Z,6.90
2018-11-22T12:29:10.592Z,7.00
2018-11-22T12:31:38.947Z,7.00
2018-11-22T12:34:12.677Z,7.20
2018-11-22T12:38:51.113Z,7.40
2018-11-22T12:41:19.626Z,7.70
2018-11-22T12:43:47.966Z,8.10
2018-11-22T12:46:16.299Z,8.40
2018-11-22T12:48:44.622Z,8.70
2018-11-22T12:51:12.941Z,8.80
2018-11-22T12:53:41.301Z,9.00
2018-11-22T12:56:09.694Z,9.10
2018-11-22T12:58:38.069Z,9.10
2018-11-22T13:01:06.433Z,9.20
2018-11-22T13:03:34.831Z,9.30
2018-11-22T13:06:03.175Z,9.30
2018-11-22T13:08:31.555Z,9.30
2018-11-22T13:10:59.906Z,9.30
2018-11-22T13:13:28.411Z,9.40
2018-11-22T13:15:56.832Z,9.50
2018-11-22T13:18:25.134Z,9.60
2018-11-22T13:20:53.507Z,9.70
2018-11-22T13:23:21.853Z,9.80
2018-11-22T13:25:50.207Z,9.80
2018-11-22T13:28:18.545Z,9.80
2018-11-22T13:30:46.887Z,9.80
2018-11-22T13:33:15.271Z,9.90
2018-11-22T13:35:43.608Z,9.90
2018-11-22T13:38:11.956Z,10.00
2018-11-22T13:40:40.279Z,10.00
2018-11-22T13:43:08.639Z,10.10
2018-11-22T13:45:37.001Z,10.10
2018-11-22T13:48:06.273Z,10.10
2018-11-22T13:50:34.479Z,10.10
2018-11-22T13:53:04.339Z,10.20
2018-11-22T13:55:32.738Z,10.20
2018-11-22T13:58:01.074Z,10.20
2018-11-22T14:00:31.754Z,10.30
2018-11-22T14:03:04.633Z,10.20
2018-11-22T14:05:32.956Z,10.20
2018-11-22T14:08:01.350Z,10.10
2018-11-22T14:10:29.730Z,10.20
2018-11-22T14:12:58.079Z,10.10
2018-11-22T14:15:27.694Z,10.20
2018-11-22T14:17:57.582Z,10.20
2018-11-22T14:20:27.697Z,10.30
2018-11-22T14:22:56.038Z,10.40
2018-11-22T14:25:24.413Z,10.30
2018-11-22T14:27:52.790Z,10.30
2018-11-22T14:30:23.765Z,10.30
2018-11-22T14:32:52.553Z,10.30
2018-11-22T14:35:21.776Z,10.30
2018-11-22T14:37:50.143Z,10.20
2018-11-22T14:40:20.905Z,10.20
2018-11-22T14:42:50.068Z,10.10
2018-11-22T14:45:18.434Z,10.10
2018-11-22T14:47:47.865Z,10.00
2018-11-22T14:50:20.078Z,10.00
2018-11-22T14:52:53.405Z,9.80
2018-11-22T14:55:21.732Z,9.60
2018-11-22T14:57:50.075Z,9.30
2018-11-22T15:00:18.408Z,9.10
2018-11-22T15:02:47.671Z,8.90
2018-11-22T15:05:16.337Z,8.80
2018-11-22T15:07:45.021Z,8.70
2018-11-22T15:10:14.512Z,8.50
2018-11-22T15:12:43.810Z,8.40
2018-11-22T15:15:15.045Z,8.40
2018-11-22T15:17:43.425Z,8.40
2018-11-22T15:20:15.315Z,8.20
2018-11-22T15:22:44.789Z,8.00
2018-11-22T15:25:14.397Z,7.80
2018-11-22T15:27:43.436Z,7.50
2018-11-22T15:30:13.410Z,7.40
2018-11-22T15:32:41.923Z,7.20
2018-11-22T15:35:14.081Z,7.00
2018-11-22T15:37:42.769Z,6.80
2018-11-22T15:40:13.801Z,6.70
2018-11-22T15:42:42.150Z,6.50
2018-11-22T15:45:12.808Z,6.40
2018-11-22T15:47:41.153Z,6.30
2018-11-22T15:50:11.847Z,6.20
2018-11-22T15:52:40.268Z,6.10
2018-11-22T15:55:09.241Z,5.90
2018-11-22T15:57:38.373Z,5.80
2018-11-22T16:00:10.165Z,5.70
2018-11-22T16:02:38.616Z,5.60
2018-11-22T16:05:08.999Z,5.60
2018-11-22T16:07:37.353Z,5.40
2018-11-22T16:10:09.378Z,5.30
2018-11-22T16:12:37.831Z,5.20
2018-11-22T16:15:10.193Z,5.10
2018-11-22T16:17:39.043Z,5.00
2018-11-22T16:20:07.772Z,4.90
2018-11-22T16:22:36.424Z,4.80
2018-11-22T16:25:06.428Z,4.70
2018-11-22T16:27:34.781Z,4.70
2018-11-22T16:30:03.446Z,4.50
2018-11-22T16:32:31.923Z,4.50
2018-11-22T16:35:00.416Z,4.40
2018-11-22T16:37:28.821Z,4.40
2018-11-22T16:39:57.137Z,4.40
2018-11-22T16:42:25.534Z,4.40
2018-11-22T16:44:54.292Z,4.40
2018-11-22T16:47:23.222Z,4.40
2018-11-22T16:49:51.615Z,4.40
2018-11-22T16:52:19.983Z,4.30
2018-11-22T16:54:48.345Z,4.30
2018-11-22T16:57:16.726Z,4.20
2018-11-22T16:59:45.075Z,4.20
2018-11-22T17:02:13.449Z,4.20
2018-11-22T17:04:41.838Z,4.10
2018-11-22T17:07:10.205Z,4.00
2018-11-22T17:09:38.579Z,4.00
2018-11-22T17:12:06.995Z,3.90
2018-11-22T17:14:35.923Z,3.90
2018-11-22T17:17:05.371Z,3.80
2018-11-22T17:19:34.367Z,3.80
2018-11-22T17:22:02.819Z,3.70
2018-11-22T17:24:31.178Z,3.60
2018-11-22T17:26:59.530Z,3.60
2018-11-22T17:29:27.941Z,3.50
2018-11-22T17:31:56.289Z,3.50
2018-11-22T17:34:24.638Z,3.50
2018-11-22T17:36:52.980Z,3.40
2018-11-22T17:39:21.378Z,3.40
2018-11-22T17:41:49.702Z,3.30
2018-11-22T17:44:18.047Z,3.30
2018-11-22T17:46:46.420Z,3.20
2018-11-22T17:49:14.765Z,3.20
2018-11-22T17:51:43.113Z,3.10
2018-11-22T17:54:11.464Z,3.10
2018-11-22T17:56:39.839Z,3.00
2018-11-22T17:59:08.225Z,3.00
2018-11-22T18:01:36.576Z,2.90
2018-11-22T18:04:05.053Z,2.90
2018-11-22T18:06:33.395Z,2.80
2018-11-22T18:09:01.739Z,2.80
2018-11-22T18:14:13.485Z,2.70
2018-11-22T18:16:41.874Z,2.70
2018-11-22T18:19:10.250Z,2.60
2018-11-22T18:21:38.749Z,2.60
2018-11-22T18:24:07.110Z,2.50
2018-11-22T18:26:35.451Z,2.50
2018-11-22T18:29:03.816Z,2.40
2018-11-22T18:31:32.178Z,2.40
2018-11-22T18:34:00.911Z,2.30
2018-11-22T18:36:29.379Z,2.30
2018-11-22T18:38:57.763Z,2.20
2018-11-22T18:41:26.152Z,2.20
2018-11-22T18:43:54.477Z,2.10
2018-11-22T18:46:22.848Z,2.10
2018-11-22T18:48:51.308Z,2.00
2018-11-22T18:51:19.657Z,2.00
2018-11-22T18:53:47.991Z,2.00
2018-11-22T18:56:16.330Z,2.00
2018-11-22T18:58:44.677Z,1.90
2018-11-22T19:01:13.034Z,1.90
2018-11-22T19:03:41.429Z,1.90
2018-11-22T19:06:09.802Z,1.80
2018-11-22T19:08:38.134Z,1.80
2018-11-22T19:11:06.524Z,1.80
2018-11-22T19:13:34.926Z,1.70
2018-11-22T19:16:03.253Z,1.70
2018-11-22T19:18:31.628Z,1.70
2018-11-22T19:20:59.981Z,1.70
2018-11-22T19:23:28.366Z,1.60
2018-11-22T19:25:56.738Z,1.60
2018-11-22T19:28:25.106Z,1.50
2018-11-22T19:30:53.468Z,1.50
2018-11-22T19:33:21.857Z,1.50
2018-11-22T19:35:52.087Z,1.40
2018-11-22T19:38:20.453Z,1.40
2018-11-22T19:40:48.878Z,1.40
2018-11-22T19:43:17.262Z,1.40
2018-11-22T19:45:47.056Z,1.30
2018-11-22T19:48:15.476Z,1.30
2018-11-22T19:50:50.565Z,1.30
2018-11-22T19:53:18.998Z,1.30
2018-11-22T19:55:47.808Z,1.30
2018-11-22T19:58:17.147Z,1.30
2018-11-22T20:00:45.517Z,1.20
2018-11-22T20:03:13.897Z,1.20
2018-11-22T20:05:42.620Z,1.10
2018-11-22T20:08:12.677Z,1.10
2018-11-22T20:10:42.315Z,1.10
2018-11-22T20:13:10.755Z,1.10
2018-11-22T20:15:39.124Z,1.00
2018-11-22T20:18:08.670Z,1.00
2018-11-22T20:20:37.025Z,1.00
2018-11-22T20:23:05.479Z,1.00
2018-11-22T20:25:33.883Z,0.90
2018-11-22T20:28:02.256Z,0.90
2018-11-22T20:30:31.985Z,0.90
2018-11-22T20:33:00.406Z,0.90
2018-11-22T20:35:29.646Z,0.90
2018-11-22T20:37:58.037Z,0.90
2018-11-22T20:40:27.229Z,0.90
2018-11-22T20:42:55.660Z,0.90
2018-11-22T20:45:25.061Z,0.90
2018-11-22T20:47:55.783Z,0.90
2018-11-22T20:50:25.269Z,0.90
2018-11-22T20:52:53.590Z,0.80
2018-11-22T20:55:27.479Z,0.80
2018-11-22T20:57:58.013Z,0.80
2018-11-22T21:00:27.763Z,0.70
2018-11-22T21:02:56.173Z,0.70
2018-11-22T21:05:25.144Z,0.70
2018-11-22T21:07:53.554Z,0.60
2018-11-22T21:10:24.062Z,0.60
2018-11-22T21:12:52.417Z,0.60
2018-11-22T21:15:23.395Z,0.50
2018-11-22T21:17:53.103Z,0.50
2018-11-22T21:20:23.216Z,0.50
2018-11-22T21:22:51.556Z,0.60
2018-11-22T21:25:20.598Z,0.60
2018-11-22T21:27:49.022Z,0.60
2018-11-22T21:30:24.004Z,0.60
2018-11-22T21:32:52.661Z,0.60
2018-11-22T21:35:21.297Z,0.50
2018-11-22T21:37:50.574Z,0.50
2018-11-22T21:40:19.781Z,0.50
2018-11-22T21:42:48.210Z,0.40
2018-11-22T21:45:18.824Z,0.40
2018-11-22T21:47:47.280Z,0.40
2018-11-22T21:50:16.790Z,0.30
2018-11-22T21:52:45.207Z,0.30
2018-11-22T21:55:16.719Z,0.30
2018-11-22T21:57:45.692Z,0.30
2018-11-22T22:00:17.664Z,0.30
2018-11-22T22:02:52.436Z,0.20
2018-11-22T22:05:15.908Z,0.20
2018-11-22T22:07:44.262Z,0.20
2018-11-22T22:10:12.888Z,0.10
2018-11-22T22:12:41.906Z,0.10
2018-11-22T22:15:12.430Z,0.10
2018-11-22T22:17:41.636Z,0.10
2018-11-22T22:20:12.550Z,0.10
2018-11-22T22:22:41.363Z,0.10
2018-11-22T22:25:11.907Z,0.10
2018-11-22T22:27:40.874Z,0.00
2018-11-22T22:30:12.545Z,0.00
2018-11-22T22:32:41.277Z,0.00
2018-11-22T22:35:09.990Z,0.00
2018-11-22T22:37:39.028Z,0.00
2018-11-22T22:40:12.304Z,-0.10
2018-11-22T22:42:41.701Z,-0.10
2018-11-22T22:45:10.333Z,-0.10
2018-11-22T22:47:38.660Z,-0.10
2018-11-22T22:50:09.413Z,-0.10
2018-11-22T22:52:37.739Z,-0.20
2018-11-22T22:55:06.565Z,-0.20
2018-11-22T22:57:34.965Z,-0.20
2018-11-22T23:00:03.410Z,-0.20
2018-11-22T23:02:31.748Z,-0.20
2018-11-22T23:05:00.113Z,-0.20
2018-11-22T23:07:28.467Z,-0.20
2018-11-22T23:09:56.834Z,-0.20
2018-11-22T23:12:25.167Z,-0.30
2018-11-22T23:14:53.535Z,-0.30
2018-11-22T23:17:21.887Z,-0.30
2018-11-22T23:19:50.253Z,-0.30
2018-11-22T23:22:18.572Z,-0.30
2018-11-22T23:24:50.724Z,-0.40
2018-11-22T23:27:19.972Z,-0.40
2018-11-22T23:29:48.328Z,-0.40
2018-11-22T23:32:16.699Z,-0.40
2018-11-22T23:34:45.015Z,-0.40
2018-11-22T23:37:13.345Z,-0.50
2018-11-22T23:39:48.317Z,-0.40
2018-11-22T23:42:16.704Z,-0.50
2018-11-22T23:44:45.011Z,-0.50
2018-11-22T23:47:13.332Z,-0.50
2018-11-22T23:49:41.706Z,-0.50
2018-11-22T23:52:10.044Z,-0.50
2018-11-22T23:54:38.526Z,-0.50
2018-11-22T23:57:06.910Z,-0.50
2018-11-22T23:59:35.257Z,-0.50
